Terminal Aerodrome Forecast
Issued by NWS

Home | Current Version | Previous Version | Graphics & Text | Print | Product List | Glossary On
Versions: 1 2 3 4 5 6 7 8 9 10 11 12 13 14 15 16 17 18 19 20 21
843
FTUS43 KICT 281740
TAFRSL
TAF
KRSL 281740Z 2818/2918 31012KT P6SM FEW035
     FM282100 03015G22KT P6SM BKN025
     FM290500 02015G22KT 5SM -SHRA OVC015
      TEMPO 2910/2914 2SM SHRA BR OVC008=

USA.gov is the U.S. government's official web portal to all federal, state and local government web resources and services.